sensor_id;sensor_type;location;lat;lon;timestamp;P1;durP1;ratioP1;P2;durP2;ratioP2
74229;SDS011;62589;12.568;99.958;2023-10-31T00:02:18;2.50;;;0.60;;
74229;SDS011;62589;12.568;99.958;2023-10-31T00:04:45;1.95;;;0.30;;
74229;SDS011;62589;12.568;99.958;2023-10-31T00:07:11;3.33;;;0.65;;
74229;SDS011;62589;12.568;99.958;2023-10-31T00:09:38;0.90;;;0.20;;
74229;SDS011;62589;12.568;99.958;2023-10-31T00:12:05;2.17;;;0.35;;
74229;SDS011;62589;12.568;99.958;2023-10-31T00:14:33;1.50;;;0.30;;
74229;SDS011;62589;12.568;99.958;2023-10-31T00:17:17;0.63;;;0.28;;
74229;SDS011;62589;12.568;99.958;2023-10-31T00:19:43;0.70;;;0.30;;
74229;SDS011;62589;12.568;99.958;2023-10-31T00:22:09;1.15;;;0.40;;
74229;SDS011;62589;12.568;99.958;2023-10-31T00:24:36;1.55;;;0.20;;
74229;SDS011;62589;12.568;99.958;2023-10-31T00:27:02;1.42;;;0.35;;
74229;SDS011;62589;12.568;99.958;2023-10-31T00:29:29;2.35;;;0.47;;
74229;SDS011;62589;12.568;99.958;2023-10-31T00:31:55;3.15;;;0.45;;
74229;SDS011;62589;12.568;99.958;2023-10-31T00:34:22;1.80;;;0.20;;
74229;SDS011;62589;12.568;99.958;2023-10-31T00:36:49;3.50;;;0.40;;
74229;SDS011;62589;12.568;99.958;2023-10-31T00:39:15;2.17;;;0.30;;
74229;SDS011;62589;12.568;99.958;2023-10-31T00:41:45;1.55;;;0.20;;
74229;SDS011;62589;12.568;99.958;2023-10-31T00:44:12;2.92;;;0.40;;
74229;SDS011;62589;12.568;99.958;2023-10-31T00:46:39;1.20;;;0.17;;
74229;SDS011;62589;12.568;99.958;2023-10-31T00:49:05;2.55;;;0.20;;
74229;SDS011;62589;12.568;99.958;2023-10-31T00:51:32;1.45;;;0.32;;
74229;SDS011;62589;12.568;99.958;2023-10-31T00:53:58;2.13;;;0.20;;
74229;SDS011;62589;12.568;99.958;2023-10-31T00:56:25;0.45;;;0.20;;
74229;SDS011;62589;12.568;99.958;2023-10-31T00:58:51;1.13;;;0.20;;
74229;SDS011;62589;12.568;99.958;2023-10-31T01:01:18;0.63;;;0.20;;
74229;SDS011;62589;12.568;99.958;2023-10-31T01:03:44;1.05;;;0.20;;
74229;SDS011;62589;12.568;99.958;2023-10-31T01:06:10;1.00;;;0.10;;
74229;SDS011;62589;12.568;99.958;2023-10-31T01:08:37;1.27;;;0.10;;
74229;SDS011;62589;12.568;99.958;2023-10-31T01:11:03;0.47;;;0.08;;
74229;SDS011;62589;12.568;99.958;2023-10-31T01:13:29;1.80;;;0.28;;
74229;SDS011;62589;12.568;99.958;2023-10-31T01:15:56;1.42;;;0.30;;
74229;SDS011;62589;12.568;99.958;2023-10-31T01:18:22;2.17;;;0.43;;
74229;SDS011;62589;12.568;99.958;2023-10-31T01:20:49;0.32;;;0.10;;
74229;SDS011;62589;12.568;99.958;2023-10-31T01:23:15;0.88;;;0.20;;
74229;SDS011;62589;12.568;99.958;2023-10-31T01:25:41;1.95;;;0.20;;
74229;SDS011;62589;12.568;99.958;2023-10-31T01:28:08;0.70;;;0.20;;
74229;SDS011;62589;12.568;99.958;2023-10-31T01:30:34;0.38;;;0.00;;
74229;SDS011;62589;12.568;99.958;2023-10-31T01:33:01;1.35;;;0.30;;
74229;SDS011;62589;12.568;99.958;2023-10-31T01:35:27;0.88;;;0.10;;
74229;SDS011;62589;12.568;99.958;2023-10-31T01:37:54;2.35;;;0.22;;
74229;SDS011;62589;12.568;99.958;2023-10-31T01:40:20;1.95;;;0.22;;
74229;SDS011;62589;12.568;99.958;2023-10-31T01:42:47;2.58;;;0.35;;
74229;SDS011;62589;12.568;99.958;2023-10-31T01:45:13;0.35;;;0.20;;
74229;SDS011;62589;12.568;99.958;2023-10-31T01:47:40;0.52;;;0.20;;
74229;SDS011;62589;12.568;99.958;2023-10-31T01:50:08;0.75;;;0.05;;
74229;SDS011;62589;12.568;99.958;2023-10-31T01:52:36;0.70;;;0.20;;
74229;SDS011;62589;12.568;99.958;2023-10-31T01:55:03;0.40;;;0.25;;
74229;SDS011;62589;12.568;99.958;2023-10-31T01:57:30;2.00;;;0.38;;
74229;SDS011;62589;12.568;99.958;2023-10-31T01:59:58;1.30;;;0.13;;
74229;SDS011;62589;12.568;99.958;2023-10-31T02:02:25;1.40;;;0.20;;
74229;SDS011;62589;12.568;99.958;2023-10-31T02:04:52;1.33;;;0.20;;
74229;SDS011;62589;12.568;99.958;2023-10-31T02:07:20;1.17;;;0.40;;
74229;SDS011;62589;12.568;99.958;2023-10-31T02:09:47;1.35;;;0.20;;
74229;SDS011;62589;12.568;99.958;2023-10-31T02:14:58;0.70;;;0.20;;
74229;SDS011;62589;12.568;99.958;2023-10-31T02:17:24;0.43;;;0.10;;
74229;SDS011;62589;12.568;99.958;2023-10-31T02:19:51;0.55;;;0.22;;
74229;SDS011;62589;12.568;99.958;2023-10-31T02:22:17;2.13;;;0.40;;
74229;SDS011;62589;12.568;99.958;2023-10-31T02:24:44;0.35;;;0.30;;
74229;SDS011;62589;12.568;99.958;2023-10-31T02:27:10;0.90;;;0.30;;
74229;SDS011;62589;12.568;99.958;2023-10-31T02:29:38;1.52;;;0.32;;
74229;SDS011;62589;12.568;99.958;2023-10-31T02:32:05;0.75;;;0.20;;
74229;SDS011;62589;12.568;99.958;2023-10-31T02:34:31;1.80;;;0.22;;
74229;SDS011;62589;12.568;99.958;2023-10-31T02:36:59;0.60;;;0.22;;
74229;SDS011;62589;12.568;99.958;2023-10-31T02:39:26;0.88;;;0.40;;
74229;SDS011;62589;12.568;99.958;2023-10-31T02:41:52;0.65;;;0.30;;
74229;SDS011;62589;12.568;99.958;2023-10-31T02:44:19;1.23;;;0.20;;
74229;SDS011;62589;12.568;99.958;2023-10-31T02:46:45;1.30;;;0.35;;
74229;SDS011;62589;12.568;99.958;2023-10-31T02:49:11;0.88;;;0.20;;
74229;SDS011;62589;12.568;99.958;2023-10-31T02:51:38;0.63;;;0.10;;
74229;SDS011;62589;12.568;99.958;2023-10-31T02:54:04;0.43;;;0.20;;
74229;SDS011;62589;12.568;99.958;2023-10-31T02:56:31;0.50;;;0.20;;
74229;SDS011;62589;12.568;99.958;2023-10-31T02:58:57;0.73;;;0.20;;
74229;SDS011;62589;12.568;99.958;2023-10-31T03:01:27;0.30;;;0.25;;
74229;SDS011;62589;12.568;99.958;2023-10-31T03:03:54;2.38;;;0.20;;
74229;SDS011;62589;12.568;99.958;2023-10-31T03:06:21;0.70;;;0.38;;
74229;SDS011;62589;12.568;99.958;2023-10-31T03:08:48;0.30;;;0.20;;
74229;SDS011;62589;12.568;99.958;2023-10-31T03:11:21;0.45;;;0.30;;
74229;SDS011;62589;12.568;99.958;2023-10-31T03:13:49;1.27;;;0.40;;
74229;SDS011;62589;12.568;99.958;2023-10-31T03:16:15;0.60;;;0.47;;
74229;SDS011;62589;12.568;99.958;2023-10-31T03:18:42;1.98;;;0.30;;
74229;SDS011;62589;12.568;99.958;2023-10-31T03:21:08;0.95;;;0.30;;
74229;SDS011;62589;12.568;99.958;2023-10-31T03:23:35;0.38;;;0.28;;
74229;SDS011;62589;12.568;99.958;2023-10-31T03:26:01;1.25;;;0.22;;
74229;SDS011;62589;12.568;99.958;2023-10-31T03:28:31;1.08;;;0.43;;
74229;SDS011;62589;12.568;99.958;2023-10-31T03:31:00;0.82;;;0.40;;
74229;SDS011;62589;12.568;99.958;2023-10-31T03:33:30;0.60;;;0.30;;
74229;SDS011;62589;12.568;99.958;2023-10-31T03:35:57;1.05;;;0.50;;
74229;SDS011;62589;12.568;99.958;2023-10-31T03:38:26;1.15;;;0.38;;
74229;SDS011;62589;12.568;99.958;2023-10-31T03:41:11;0.93;;;0.40;;
74229;SDS011;62589;12.568;99.958;2023-10-31T03:43:38;0.90;;;0.43;;
74229;SDS011;62589;12.568;99.958;2023-10-31T03:46:08;1.02;;;0.57;;
74229;SDS011;62589;12.568;99.958;2023-10-31T03:48:43;0.70;;;0.40;;
74229;SDS011;62589;12.568;99.958;2023-10-31T03:51:13;0.60;;;0.40;;
74229;SDS011;62589;12.568;99.958;2023-10-31T03:54:33;2.40;;;0.60;;
74229;SDS011;62589;12.568;99.958;2023-10-31T03:57:00;1.00;;;0.60;;
74229;SDS011;62589;12.568;99.958;2023-10-31T03:59:26;1.58;;;0.60;;
74229;SDS011;62589;12.568;99.958;2023-10-31T04:02:05;0.60;;;0.30;;
74229;SDS011;62589;12.568;99.958;2023-10-31T04:04:34;1.48;;;0.40;;
74229;SDS011;62589;12.568;99.958;2023-10-31T04:07:07;2.15;;;0.60;;
74229;SDS011;62589;12.568;99.958;2023-10-31T04:09:53;1.10;;;0.40;;
74229;SDS011;62589;12.568;99.958;2023-10-31T04:12:20;2.15;;;0.43;;
74229;SDS011;62589;12.568;99.958;2023-10-31T04:14:47;0.50;;;0.43;;
74229;SDS011;62589;12.568;99.958;2023-10-31T04:17:13;0.68;;;0.50;;
74229;SDS011;62589;12.568;99.958;2023-10-31T04:19:39;0.65;;;0.40;;
74229;SDS011;62589;12.568;99.958;2023-10-31T04:22:06;0.55;;;0.30;;
74229;SDS011;62589;12.568;99.958;2023-10-31T04:24:32;0.80;;;0.50;;
74229;SDS011;62589;12.568;99.958;2023-10-31T04:26:59;0.50;;;0.20;;
74229;SDS011;62589;12.568;99.958;2023-10-31T04:29:25;0.43;;;0.17;;
74229;SDS011;62589;12.568;99.958;2023-10-31T04:31:52;0.30;;;0.20;;
74229;SDS011;62589;12.568;99.958;2023-10-31T04:34:18;0.85;;;0.30;;
74229;SDS011;62589;12.568;99.958;2023-10-31T04:36:45;0.95;;;0.10;;
74229;SDS011;62589;12.568;99.958;2023-10-31T04:39:11;2.00;;;0.20;;
74229;SDS011;62589;12.568;99.958;2023-10-31T04:41:38;0.47;;;0.20;;
74229;SDS011;62589;12.568;99.958;2023-10-31T04:44:04;0.47;;;0.30;;
74229;SDS011;62589;12.568;99.958;2023-10-31T04:46:31;0.80;;;0.50;;
74229;SDS011;62589;12.568;99.958;2023-10-31T04:48:58;0.85;;;0.30;;
74229;SDS011;62589;12.568;99.958;2023-10-31T04:51:24;0.57;;;0.40;;
74229;SDS011;62589;12.568;99.958;2023-10-31T04:53:50;1.33;;;0.45;;
74229;SDS011;62589;12.568;99.958;2023-10-31T04:56:17;1.02;;;0.35;;
74229;SDS011;62589;12.568;99.958;2023-10-31T04:58:44;0.90;;;0.32;;
74229;SDS011;62589;12.568;99.958;2023-10-31T05:01:11;0.68;;;0.30;;
74229;SDS011;62589;12.568;99.958;2023-10-31T05:03:39;1.48;;;0.25;;
74229;SDS011;62589;12.568;99.958;2023-10-31T05:06:05;0.40;;;0.40;;
74229;SDS011;62589;12.568;99.958;2023-10-31T05:08:32;0.47;;;0.43;;
74229;SDS011;62589;12.568;99.958;2023-10-31T05:10:58;0.40;;;0.40;;
74229;SDS011;62589;12.568;99.958;2023-10-31T05:13:25;1.65;;;0.30;;
74229;SDS011;62589;12.568;99.958;2023-10-31T05:15:51;0.90;;;0.25;;
74229;SDS011;62589;12.568;99.958;2023-10-31T05:18:18;1.00;;;0.40;;
74229;SDS011;62589;12.568;99.958;2023-10-31T05:20:44;0.68;;;0.40;;
74229;SDS011;62589;12.568;99.958;2023-10-31T05:23:11;0.40;;;0.40;;
74229;SDS011;62589;12.568;99.958;2023-10-31T05:25:37;2.42;;;0.32;;
74229;SDS011;62589;12.568;99.958;2023-10-31T05:28:04;0.55;;;0.32;;
74229;SDS011;62589;12.568;99.958;2023-10-31T05:30:31;0.57;;;0.57;;
74229;SDS011;62589;12.568;99.958;2023-10-31T05:32:57;0.93;;;0.93;;
74229;SDS011;62589;12.568;99.958;2023-10-31T05:35:23;1.13;;;1.13;;
74229;SDS011;62589;12.568;99.958;2023-10-31T05:37:50;1.48;;;1.38;;
74229;SDS011;62589;12.568;99.958;2023-10-31T05:40:17;1.40;;;1.30;;
74229;SDS011;62589;12.568;99.958;2023-10-31T05:42:43;1.58;;;1.48;;
74229;SDS011;62589;12.568;99.958;2023-10-31T05:45:09;1.83;;;1.73;;
74229;SDS011;62589;12.568;99.958;2023-10-31T05:47:36;3.28;;;1.80;;
74229;SDS011;62589;12.568;99.958;2023-10-31T05:50:02;1.80;;;1.70;;
74229;SDS011;62589;12.568;99.958;2023-10-31T05:52:29;2.00;;;1.90;;
74229;SDS011;62589;12.568;99.958;2023-10-31T05:54:57;2.22;;;2.03;;
74229;SDS011;62589;12.568;99.958;2023-10-31T05:57:24;2.70;;;2.50;;
74229;SDS011;62589;12.568;99.958;2023-10-31T05:59:50;2.30;;;2.20;;
74229;SDS011;62589;12.568;99.958;2023-10-31T06:02:16;2.88;;;2.30;;
74229;SDS011;62589;12.568;99.958;2023-10-31T06:04:44;2.60;;;2.50;;
74229;SDS011;62589;12.568;99.958;2023-10-31T06:07:10;2.88;;;2.55;;
74229;SDS011;62589;12.568;99.958;2023-10-31T06:09:37;3.00;;;2.80;;
74229;SDS011;62589;12.568;99.958;2023-10-31T06:12:03;3.15;;;2.90;;
74229;SDS011;62589;12.568;99.958;2023-10-31T06:14:31;2.85;;;2.53;;
74229;SDS011;62589;12.568;99.958;2023-10-31T06:16:57;2.22;;;2.10;;
74229;SDS011;62589;12.568;99.958;2023-10-31T06:19:24;2.33;;;2.03;;
74229;SDS011;62589;12.568;99.958;2023-10-31T06:21:51;2.22;;;2.13;;
74229;SDS011;62589;12.568;99.958;2023-10-31T06:24:17;2.33;;;2.13;;
74229;SDS011;62589;12.568;99.958;2023-10-31T06:26:50;1.80;;;1.63;;
74229;SDS011;62589;12.568;99.958;2023-10-31T06:29:16;1.90;;;1.80;;
74229;SDS011;62589;12.568;99.958;2023-10-31T06:31:46;2.45;;;1.60;;
74229;SDS011;62589;12.568;99.958;2023-10-31T06:34:13;2.15;;;2.00;;
74229;SDS011;62589;12.568;99.958;2023-10-31T06:36:39;3.13;;;2.05;;
74229;SDS011;62589;12.568;99.958;2023-10-31T06:39:06;2.40;;;2.30;;
74229;SDS011;62589;12.568;99.958;2023-10-31T06:41:32;4.10;;;3.35;;
74229;SDS011;62589;12.568;99.958;2023-10-31T06:43:59;3.50;;;3.30;;
74229;SDS011;62589;12.568;99.958;2023-10-31T06:46:25;3.50;;;3.30;;
74229;SDS011;62589;12.568;99.958;2023-10-31T06:48:55;3.58;;;3.35;;
74229;SDS011;62589;12.568;99.958;2023-10-31T06:51:21;3.80;;;3.50;;
74229;SDS011;62589;12.568;99.958;2023-10-31T06:53:51;4.18;;;3.88;;
74229;SDS011;62589;12.568;99.958;2023-10-31T06:56:17;3.92;;;3.63;;
74229;SDS011;62589;12.568;99.958;2023-10-31T06:58:44;3.90;;;3.60;;
74229;SDS011;62589;12.568;99.958;2023-10-31T07:01:10;3.80;;;3.50;;
74229;SDS011;62589;12.568;99.958;2023-10-31T07:03:39;3.65;;;3.45;;
74229;SDS011;62589;12.568;99.958;2023-10-31T07:06:05;4.03;;;3.72;;
74229;SDS011;62589;12.568;99.958;2023-10-31T07:08:32;5.85;;;3.45;;
74229;SDS011;62589;12.568;99.958;2023-10-31T07:10:58;3.97;;;3.55;;
74229;SDS011;62589;12.568;99.958;2023-10-31T07:13:25;3.63;;;3.42;;
74229;SDS011;62589;12.568;99.958;2023-10-31T07:15:51;3.92;;;3.63;;
74229;SDS011;62589;12.568;99.958;2023-10-31T07:18:18;4.25;;;3.88;;
74229;SDS011;62589;12.568;99.958;2023-10-31T07:20:44;4.15;;;3.85;;
74229;SDS011;62589;12.568;99.958;2023-10-31T07:23:13;4.20;;;3.90;;
74229;SDS011;62589;12.568;99.958;2023-10-31T07:25:40;4.07;;;3.60;;
74229;SDS011;62589;12.568;99.958;2023-10-31T07:28:07;3.88;;;3.58;;
74229;SDS011;62589;12.568;99.958;2023-10-31T07:30:33;6.20;;;3.90;;
74229;SDS011;62589;12.568;99.958;2023-10-31T07:33:00;4.47;;;4.18;;
74229;SDS011;62589;12.568;99.958;2023-10-31T07:35:26;4.20;;;3.90;;
74229;SDS011;62589;12.568;99.958;2023-10-31T07:37:53;4.10;;;3.80;;
74229;SDS011;62589;12.568;99.958;2023-10-31T07:40:19;6.55;;;3.67;;
74229;SDS011;62589;12.568;99.958;2023-10-31T07:42:45;4.15;;;3.75;;
74229;SDS011;62589;12.568;99.958;2023-10-31T07:45:12;4.10;;;3.80;;
74229;SDS011;62589;12.568;99.958;2023-10-31T07:47:38;3.38;;;3.13;;
74229;SDS011;62589;12.568;99.958;2023-10-31T07:50:05;4.47;;;3.30;;
74229;SDS011;62589;12.568;99.958;2023-10-31T07:52:31;3.40;;;3.10;;
74229;SDS011;62589;12.568;99.958;2023-10-31T07:54:58;2.95;;;2.75;;
74229;SDS011;62589;12.568;99.958;2023-10-31T07:57:24;2.90;;;2.70;;
74229;SDS011;62589;12.568;99.958;2023-10-31T07:59:50;3.05;;;2.85;;
74229;SDS011;62589;12.568;99.958;2023-10-31T08:02:17;3.05;;;2.85;;
74229;SDS011;62589;12.568;99.958;2023-10-31T08:04:43;3.00;;;2.80;;
74229;SDS011;62589;12.568;99.958;2023-10-31T08:07:09;3.40;;;3.05;;
74229;SDS011;62589;12.568;99.958;2023-10-31T08:09:36;3.55;;;3.25;;
74229;SDS011;62589;12.568;99.958;2023-10-31T08:12:02;3.30;;;3.10;;
74229;SDS011;62589;12.568;99.958;2023-10-31T08:14:29;3.50;;;3.30;;
74229;SDS011;62589;12.568;99.958;2023-10-31T08:16:55;3.72;;;3.38;;
74229;SDS011;62589;12.568;99.958;2023-10-31T08:19:21;4.32;;;3.17;;
74229;SDS011;62589;12.568;99.958;2023-10-31T08:21:48;3.70;;;3.40;;
74229;SDS011;62589;12.568;99.958;2023-10-31T08:24:14;3.75;;;3.38;;
74229;SDS011;62589;12.568;99.958;2023-10-31T08:26:40;3.42;;;3.15;;
74229;SDS011;62589;12.568;99.958;2023-10-31T08:29:07;3.47;;;3.25;;
74229;SDS011;62589;12.568;99.958;2023-10-31T08:31:33;3.63;;;3.42;;
74229;SDS011;62589;12.568;99.958;2023-10-31T08:34:00;3.38;;;3.17;;
74229;SDS011;62589;12.568;99.958;2023-10-31T08:36:26;3.80;;;3.50;;
74229;SDS011;62589;12.568;99.958;2023-10-31T08:38:53;4.70;;;3.58;;
74229;SDS011;62589;12.568;99.958;2023-10-31T08:41:20;3.70;;;3.40;;
74229;SDS011;62589;12.568;99.958;2023-10-31T08:43:47;3.78;;;3.42;;
74229;SDS011;62589;12.568;99.958;2023-10-31T08:46:13;5.03;;;4.10;;
74229;SDS011;62589;12.568;99.958;2023-10-31T08:48:39;3.63;;;3.42;;
74229;SDS011;62589;12.568;99.958;2023-10-31T08:51:06;4.93;;;4.20;;
74229;SDS011;62589;12.568;99.958;2023-10-31T08:53:32;4.45;;;4.15;;
74229;SDS011;62589;12.568;99.958;2023-10-31T08:55:59;4.15;;;3.75;;
74229;SDS011;62589;12.568;99.958;2023-10-31T08:58:25;3.92;;;3.63;;
74229;SDS011;62589;12.568;99.958;2023-10-31T09:00:51;5.22;;;3.80;;
74229;SDS011;62589;12.568;99.958;2023-10-31T09:03:18;4.00;;;3.70;;
74229;SDS011;62589;12.568;99.958;2023-10-31T09:05:44;4.00;;;3.70;;
74229;SDS011;62589;12.568;99.958;2023-10-31T09:08:10;4.57;;;4.05;;
74229;SDS011;62589;12.568;99.958;2023-10-31T09:10:37;4.13;;;3.83;;
74229;SDS011;62589;12.568;99.958;2023-10-31T09:13:08;3.60;;;3.33;;
74229;SDS011;62589;12.568;99.958;2023-10-31T09:15:35;4.28;;;3.88;;
74229;SDS011;62589;12.568;99.958;2023-10-31T09:18:02;3.80;;;3.50;;
74229;SDS011;62589;12.568;99.958;2023-10-31T09:20:28;4.07;;;3.78;;
74229;SDS011;62589;12.568;99.958;2023-10-31T09:22:55;3.83;;;3.53;;
74229;SDS011;62589;12.568;99.958;2023-10-31T09:25:21;4.45;;;3.97;;
74229;SDS011;62589;12.568;99.958;2023-10-31T09:27:48;3.45;;;3.15;;
74229;SDS011;62589;12.568;99.958;2023-10-31T09:30:15;4.05;;;3.75;;
74229;SDS011;62589;12.568;99.958;2023-10-31T09:32:41;3.90;;;3.47;;
74229;SDS011;62589;12.568;99.958;2023-10-31T09:35:07;4.20;;;3.90;;
74229;SDS011;62589;12.568;99.958;2023-10-31T09:37:34;3.95;;;3.67;;
74229;SDS011;62589;12.568;99.958;2023-10-31T09:40:00;4.25;;;3.95;;
74229;SDS011;62589;12.568;99.958;2023-10-31T09:42:28;4.05;;;3.75;;
74229;SDS011;62589;12.568;99.958;2023-10-31T09:44:54;3.75;;;3.45;;
74229;SDS011;62589;12.568;99.958;2023-10-31T09:47:21;4.35;;;3.53;;
74229;SDS011;62589;12.568;99.958;2023-10-31T09:49:48;4.75;;;4.35;;
74229;SDS011;62589;12.568;99.958;2023-10-31T09:52:14;4.18;;;3.88;;
74229;SDS011;62589;12.568;99.958;2023-10-31T09:54:40;4.68;;;3.90;;
74229;SDS011;62589;12.568;99.958;2023-10-31T09:57:08;4.03;;;3.72;;
74229;SDS011;62589;12.568;99.958;2023-10-31T09:59:34;3.88;;;3.50;;
74229;SDS011;62589;12.568;99.958;2023-10-31T10:02:01;4.00;;;3.70;;
74229;SDS011;62589;12.568;99.958;2023-10-31T10:04:27;4.22;;;3.88;;
74229;SDS011;62589;12.568;99.958;2023-10-31T10:07:01;4.20;;;3.90;;
74229;SDS011;62589;12.568;99.958;2023-10-31T10:11:55;4.65;;;4.07;;
74229;SDS011;62589;12.568;99.958;2023-10-31T10:14:23;4.68;;;4.28;;
74229;SDS011;62589;12.568;99.958;2023-10-31T10:16:50;4.88;;;4.00;;
74229;SDS011;62589;12.568;99.958;2023-10-31T10:19:18;4.43;;;4.05;;
74229;SDS011;62589;12.568;99.958;2023-10-31T10:21:53;4.40;;;4.00;;
74229;SDS011;62589;12.568;99.958;2023-10-31T10:24:21;4.60;;;4.20;;
74229;SDS011;62589;12.568;99.958;2023-10-31T10:26:50;3.78;;;3.53;;
74229;SDS011;62589;12.568;99.958;2023-10-31T10:29:17;5.03;;;3.85;;
74229;SDS011;62589;12.568;99.958;2023-10-31T10:31:43;3.70;;;3.40;;
74229;SDS011;62589;12.568;99.958;2023-10-31T10:34:10;4.97;;;4.53;;
74229;SDS011;62589;12.568;99.958;2023-10-31T10:36:39;4.13;;;3.67;;
74229;SDS011;62589;12.568;99.958;2023-10-31T10:39:06;4.05;;;3.75;;
74229;SDS011;62589;12.568;99.958;2023-10-31T10:41:34;3.58;;;3.38;;
74229;SDS011;62589;12.568;99.958;2023-10-31T10:44:06;3.90;;;3.50;;
74229;SDS011;62589;12.568;99.958;2023-10-31T10:46:35;4.35;;;3.78;;
74229;SDS011;62589;12.568;99.958;2023-10-31T10:49:06;4.20;;;3.90;;
74229;SDS011;62589;12.568;99.958;2023-10-31T10:51:40;4.53;;;4.13;;
74229;SDS011;62589;12.568;99.958;2023-10-31T10:54:18;4.80;;;4.45;;
74229;SDS011;62589;12.568;99.958;2023-10-31T10:56:54;4.53;;;4.18;;
74229;SDS011;62589;12.568;99.958;2023-10-31T10:59:39;4.75;;;4.03;;
74229;SDS011;62589;12.568;99.958;2023-10-31T11:02:16;5.05;;;4.65;;
74229;SDS011;62589;12.568;99.958;2023-10-31T11:04:43;4.45;;;4.05;;
74229;SDS011;62589;12.568;99.958;2023-10-31T11:07:10;4.32;;;4.00;;
74229;SDS011;62589;12.568;99.958;2023-10-31T11:09:37;5.00;;;4.60;;
74229;SDS011;62589;12.568;99.958;2023-10-31T11:12:05;5.05;;;4.57;;
74229;SDS011;62589;12.568;99.958;2023-10-31T11:14:33;5.07;;;4.68;;
74229;SDS011;62589;12.568;99.958;2023-10-31T11:17:02;5.00;;;4.60;;
74229;SDS011;62589;12.568;99.958;2023-10-31T11:19:35;5.70;;;5.20;;
74229;SDS011;62589;12.568;99.958;2023-10-31T11:22:02;6.10;;;5.22;;
74229;SDS011;62589;12.568;99.958;2023-10-31T11:24:31;5.90;;;5.40;;
74229;SDS011;62589;12.568;99.958;2023-10-31T11:27:00;5.95;;;5.35;;
74229;SDS011;62589;12.568;99.958;2023-10-31T11:29:28;5.22;;;4.80;;
74229;SDS011;62589;12.568;99.958;2023-10-31T11:31:56;5.55;;;5.05;;
74229;SDS011;62589;12.568;99.958;2023-10-31T11:34:23;5.57;;;5.13;;
74229;SDS011;62589;12.568;99.958;2023-10-31T11:36:52;5.93;;;5.40;;
74229;SDS011;62589;12.568;99.958;2023-10-31T11:39:20;7.80;;;5.15;;
74229;SDS011;62589;12.568;99.958;2023-10-31T11:41:55;6.15;;;5.55;;
74229;SDS011;62589;12.568;99.958;2023-10-31T11:44:22;5.97;;;5.40;;
74229;SDS011;62589;12.568;99.958;2023-10-31T11:46:52;7.78;;;6.55;;
74229;SDS011;62589;12.568;99.958;2023-10-31T11:52:17;7.03;;;6.30;;
74229;SDS011;62589;12.568;99.958;2023-10-31T11:54:44;6.47;;;5.60;;
74229;SDS011;62589;12.568;99.958;2023-10-31T11:57:10;6.45;;;5.95;;
74229;SDS011;62589;12.568;99.958;2023-10-31T11:59:37;7.32;;;6.63;;
74229;SDS011;62589;12.568;99.958;2023-10-31T12:02:14;7.03;;;6.38;;
74229;SDS011;62589;12.568;99.958;2023-10-31T12:04:41;7.75;;;6.22;;
74229;SDS011;62589;12.568;99.958;2023-10-31T12:07:08;6.75;;;6.10;;
74229;SDS011;62589;12.568;99.958;2023-10-31T12:12:13;7.80;;;6.93;;
74229;SDS011;62589;12.568;99.958;2023-10-31T12:14:39;7.40;;;6.80;;
74229;SDS011;62589;12.568;99.958;2023-10-31T12:17:06;7.05;;;6.45;;
74229;SDS011;62589;12.568;99.958;2023-10-31T12:19:35;6.78;;;6.07;;
74229;SDS011;62589;12.568;99.958;2023-10-31T12:22:11;7.28;;;6.57;;
74229;SDS011;62589;12.568;99.958;2023-10-31T12:24:39;8.27;;;7.10;;
74229;SDS011;62589;12.568;99.958;2023-10-31T12:27:06;7.45;;;6.75;;
74229;SDS011;62589;12.568;99.958;2023-10-31T12:29:32;7.25;;;6.55;;
74229;SDS011;62589;12.568;99.958;2023-10-31T12:31:58;7.80;;;7.03;;
74229;SDS011;62589;12.568;99.958;2023-10-31T12:34:25;6.93;;;6.32;;
74229;SDS011;62589;12.568;99.958;2023-10-31T12:36:52;6.70;;;6.03;;
74229;SDS011;62589;12.568;99.958;2023-10-31T12:39:20;7.18;;;6.57;;
74229;SDS011;62589;12.568;99.958;2023-10-31T12:41:51;7.80;;;7.10;;
74229;SDS011;62589;12.568;99.958;2023-10-31T12:44:21;8.25;;;7.43;;
74229;SDS011;62589;12.568;99.958;2023-10-31T12:46:53;7.55;;;6.80;;
74229;SDS011;62589;12.568;99.958;2023-10-31T12:49:20;7.93;;;7.22;;
74229;SDS011;62589;12.568;99.958;2023-10-31T12:51:55;7.25;;;6.65;;
74229;SDS011;62589;12.568;99.958;2023-10-31T12:54:30;7.75;;;7.03;;
74229;SDS011;62589;12.568;99.958;2023-10-31T12:57:01;8.18;;;7.03;;
74229;SDS011;62589;12.568;99.958;2023-10-31T12:59:30;8.05;;;7.35;;
74229;SDS011;62589;12.568;99.958;2023-10-31T13:01:57;7.65;;;7.05;;
74229;SDS011;62589;12.568;99.958;2023-10-31T13:04:26;7.47;;;6.85;;
74229;SDS011;62589;12.568;99.958;2023-10-31T13:07:00;6.93;;;6.38;;
74229;SDS011;62589;12.568;99.958;2023-10-31T13:09:34;7.30;;;6.60;;
74229;SDS011;62589;12.568;99.958;2023-10-31T13:12:04;7.40;;;6.80;;
74229;SDS011;62589;12.568;99.958;2023-10-31T13:14:32;11.90;;;7.45;;
74229;SDS011;62589;12.568;99.958;2023-10-31T13:16:59;7.05;;;6.45;;
74229;SDS011;62589;12.568;99.958;2023-10-31T13:19:27;7.40;;;6.70;;
74229;SDS011;62589;12.568;99.958;2023-10-31T13:21:54;6.75;;;6.05;;
74229;SDS011;62589;12.568;99.958;2023-10-31T13:24:21;7.30;;;6.60;;
74229;SDS011;62589;12.568;99.958;2023-10-31T13:26:47;7.35;;;6.65;;
74229;SDS011;62589;12.568;99.958;2023-10-31T13:29:17;7.72;;;6.93;;
74229;SDS011;62589;12.568;99.958;2023-10-31T13:31:44;6.68;;;6.10;;
74229;SDS011;62589;12.568;99.958;2023-10-31T13:34:10;6.90;;;6.30;;
74229;SDS011;62589;12.568;99.958;2023-10-31T13:36:37;6.93;;;5.53;;
74229;SDS011;62589;12.568;99.958;2023-10-31T13:39:04;8.95;;;5.70;;
74229;SDS011;62589;12.568;99.958;2023-10-31T13:41:30;6.85;;;6.07;;
74229;SDS011;62589;12.568;99.958;2023-10-31T13:43:56;6.05;;;5.45;;
74229;SDS011;62589;12.568;99.958;2023-10-31T13:46:23;6.00;;;5.43;;
74229;SDS011;62589;12.568;99.958;2023-10-31T13:48:49;5.65;;;5.25;;
74229;SDS011;62589;12.568;99.958;2023-10-31T13:51:15;6.45;;;5.85;;
74229;SDS011;62589;12.568;99.958;2023-10-31T13:53:44;6.25;;;5.75;;
74229;SDS011;62589;12.568;99.958;2023-10-31T13:56:11;5.72;;;5.28;;
74229;SDS011;62589;12.568;99.958;2023-10-31T13:58:37;6.18;;;5.68;;
74229;SDS011;62589;12.568;99.958;2023-10-31T14:01:03;5.60;;;5.20;;
74229;SDS011;62589;12.568;99.958;2023-10-31T14:03:31;6.35;;;5.75;;
74229;SDS011;62589;12.568;99.958;2023-10-31T14:05:58;7.50;;;5.95;;
74229;SDS011;62589;12.568;99.958;2023-10-31T14:08:24;5.63;;;5.20;;
74229;SDS011;62589;12.568;99.958;2023-10-31T14:10:51;5.70;;;5.20;;
74229;SDS011;62589;12.568;99.958;2023-10-31T14:13:17;5.40;;;5.00;;
74229;SDS011;62589;12.568;99.958;2023-10-31T14:15:45;6.18;;;5.28;;
74229;SDS011;62589;12.568;99.958;2023-10-31T14:18:12;5.40;;;4.90;;
74229;SDS011;62589;12.568;99.958;2023-10-31T14:20:38;5.82;;;5.28;;
74229;SDS011;62589;12.568;99.958;2023-10-31T14:23:05;5.90;;;5.40;;
74229;SDS011;62589;12.568;99.958;2023-10-31T14:25:32;5.63;;;4.93;;
74229;SDS011;62589;12.568;99.958;2023-10-31T14:27:58;5.20;;;4.70;;
74229;SDS011;62589;12.568;99.958;2023-10-31T14:30:25;6.68;;;5.55;;
74229;SDS011;62589;12.568;99.958;2023-10-31T14:32:52;5.25;;;4.75;;
74229;SDS011;62589;12.568;99.958;2023-10-31T14:35:18;4.65;;;4.32;;
74229;SDS011;62589;12.568;99.958;2023-10-31T14:37:44;5.68;;;4.88;;
74229;SDS011;62589;12.568;99.958;2023-10-31T14:40:11;4.95;;;4.50;;
74229;SDS011;62589;12.568;99.958;2023-10-31T14:42:37;4.40;;;4.05;;
74229;SDS011;62589;12.568;99.958;2023-10-31T14:45:04;5.13;;;4.68;;
74229;SDS011;62589;12.568;99.958;2023-10-31T14:47:31;4.68;;;4.28;;